Willow, Oklahoma
Current Conditions -  °F | °C
As of 8:55 AM on Thursday 30 Oct 2014 (Local Time) from KAXS Reporting Station
Clear Clear  
Wind Chill: 53°   Ceiling: Unl
Heat Index: 53°   Visibility: 10mi
Dew Point: 42°   Wind: 3mph
Humidity: 66%   Direction: 140°SE
Pressure: 30.15"   Gusts: NA
Location:  35.05°N, 99.51°W
Report Text: KAXS 301355Z AUTO 14003KT 10SM CLR 12/06 A3015 RMK AO2 T01190058
Loading
Personal Weather Stations






























Interactive Weather Map
Tropical Storm Tracking
New forecast layout! Learn more

10-Day Weather Forecast

Advertisements
Track Severe Weather on mobile